Flight Track Log - Related Links

Times and Time Zones

All times are in EDT time to prevent confusion due to time zone crossing. See the SKW6345 flight status page for this flight to view local times or setup timezone preferences in your user account.

Time Position Orientation Groundspeed Altitude Reporting Facility
EDT Latitude Longitude Course Direction KTS MPH feet Rate Location/Type
Sun 02:54:51 PM 45.7103 -111.1436 290° West 249 287 7,000  Level Salt Center
Sun 02:55:53 PM 45.7144 -111.2425 273° West 249 287 8,500 1,742 Climbing Salt Center
Sun 02:56:00 PM 45.7301 -111.5273 282° West  Level FlightAware
Sun 02:56:55 PM 45.7325 -111.3536 283° West 268 308 10,600  Level Salt Center
Sun 02:57:00 PM 45.7436 -111.6793 288° West  Level FlightAware
Sun 02:57:57 PM 45.7508 -111.4761 282° West 291 335 12,000  Level Salt Center
Sun 02:58:00 PM 45.7762 -111.8214 290° West  Level FlightAware
Sun 02:58:59 PM 45.7172 -111.5961 248° West 322 371 14,600  Level Salt Center
Sun 02:59:00 PM 45.8146 -111.9604 296° West  Level FlightAware
Sun 03:00:00 PM 45.8428 -112.1044 290° West  Level FlightAware
Sun 03:00:00 PM 45.6470 -111.7097 239° Southwest  Level Estimated
Sun 03:01:03 PM 45.6175 -111.8181 239° Southwest 335 386 17,700  Level Salt Center
Sun 03:02:05 PM 45.5539 -111.9592 237° Southwest 350 403 19,700 1,790 Climbing Salt Center
Sun 03:03:07 PM 45.4992 -112.0797 237° Southwest 359 413 21,400 1,694 Climbing Salt Center
Sun 03:04:09 PM 45.4442 -112.2006 237° Southwest 362 417 23,200 1,452 Climbing Salt Center
Sun 03:05:11 PM 45.3886 -112.3228 237° Southwest 366 421 24,400 1,258 Climbing Salt Center
Sun 03:06:13 PM 45.3256 -112.4594 237° Southwest 371 427 25,800 1,210 Climbing Salt Center
Sun 03:07:15 PM 45.2703 -112.5800 237° Southwest 378 435 26,900 1,008 Climbing Salt Center
Sun 03:08:18 PM 45.2053 -112.7217 237° Southwest 384 442 27,900 912 Climbing Salt Center
Sun 03:09:20 PM 45.1472 -112.8461 237° Southwest 392 451 28,800 968 Climbing Salt Center
Sun 03:10:22 PM 45.0786 -112.9925 236° Southwest 399 459 29,900 871 Climbing Salt Center
Sun 03:11:24 PM 45.0208 -113.1172 237° Southwest 399 459 30,600 677 Climbing Salt Center
Sun 03:12:26 PM 44.9506 -113.2647 236° Southwest 404 465 31,300 581 Climbing Salt Center
Sun 03:13:28 PM 44.8903 -113.3917 236° Southwest 407 468 31,800 823 Climbing Salt Center
Sun 03:14:30 PM 44.8197 -113.5403 236° Southwest 409 471 33,000 1,065 Climbing Salt Center
Sun 03:15:32 PM 44.7589 -113.6633 235° Southwest 404 465 34,000 871 Climbing Salt Center
Sun 03:16:34 PM 44.6906 -113.8050 236° Southwest 395 455 34,800 968 Climbing Salt Center
Sun 03:17:36 PM 44.6336 -113.9236 236° Southwest 386 444 36,000 774 Climbing Salt Center
Sun 03:18:38 PM 44.5739 -114.0506 237° Southwest 377 434 36,400 823 Climbing Salt Center
Sun 03:19:40 PM 44.5083 -114.1842 236° Southwest 372 428 37,700 774 Climbing Salt Center
Sun 03:20:42 PM 44.4561 -114.2939 236° Southwest 358 412 38,000 145 Climbing Salt Center
Sun 03:21:44 PM 44.4011 -114.4069 236° Southwest 362 417 38,000  Level Salt Center
Sun 03:22:46 PM 44.3342 -114.5408 235° Southwest 372 428 38,000  Level Salt Center
Sun 03:23:48 PM 44.2772 -114.6558 235° Southwest 374 430 38,000  Level Salt Center
Sun 03:24:50 PM 44.2092 -114.7897 235° Southwest 377 434 38,000  Level Salt Center
Sun 03:25:52 PM 44.1517 -114.9061 235° Southwest 379 436 38,000  Level Salt Center
Sun 03:26:54 PM 44.0819 -115.0422 235° Southwest 384 442 38,000  Level Salt Center
Sun 03:27:56 PM 44.0225 -115.1603 235° Southwest 387 445 38,000  Level Salt Center
Sun 03:28:58 PM 43.9533 -115.2975 235° Southwest 386 444 38,000  Level Salt Center
Sun 03:30:00 PM 43.8942 -115.4150 235° Southwest 385 443 38,000  Level Salt Center
Sun 03:31:03 PM 43.8336 -115.5322 234° Southwest 389 448 38,000  Level Salt Center
Sun 03:32:05 PM 43.7642 -115.6694 235° Southwest 389 448 38,000  Level Salt Center
Sun 03:33:07 PM 43.7039 -115.7869 235° Southwest 390 449 38,000  Level Salt Center
Sun 03:34:09 PM 43.6331 -115.9247 235° Southwest 391 450 38,000  Level Salt Center
Sun 03:35:11 PM 43.5725 -116.0414 234° Southwest 390 449 38,000  Level Salt Center
Sun 03:36:13 PM 43.5011 -116.1783 234° Southwest 392 451 38,000  Level Salt Center
Sun 03:37:15 PM 43.4403 -116.2958 235° Southwest 392 451 38,000  Level Salt Center
Sun 03:38:17 PM 43.3678 -116.4300 233° Southwest 390 449 38,000  Level Salt Center
Sun 03:39:19 PM 43.3064 -116.5467 234° Southwest 392 451 38,000  Level Salt Center
Sun 03:40:21 PM 43.2444 -116.6644 234° Southwest 396 456 38,000  Level Salt Center
Sun 03:41:23 PM 43.1719 -116.7983 233° Southwest 393 452 38,000  Level Salt Center
Sun 03:42:25 PM 43.1094 -116.9142 234° Southwest 394 453 38,000  Level Salt Center
Sun 03:43:27 PM 43.0372 -117.0503 234° Southwest 396 456 38,000  Level Salt Center
Sun 03:44:29 PM 42.9742 -117.1661 233° Southwest 397 457 38,000  Level Salt Center
Sun 03:45:31 PM 42.9008 -117.3022 234° Southwest 397 457 38,000  Level Salt Center
Sun 03:46:33 PM 42.8378 -117.4194 234° Southwest 399 459 38,000  Level Salt Center
Sun 03:47:35 PM 42.7639 -117.5533 233° Southwest 399 459 38,000  Level Salt Center
Sun 03:48:37 PM 42.7006 -117.6689 233° Southwest 398 458 38,000  Level Salt Center
Sun 03:49:39 PM 42.6264 -117.8033 233° Southwest 398 458 38,000  Level Salt Center
Sun 03:50:41 PM 42.5467 -117.8942 220° Southwest 397 457 38,000  Level Salt Center
Sun 03:51:44 PM 42.4336 -117.9653 205° Southwest 401 461 38,000  Level Salt Center
Sun 03:52:46 PM 42.3353 -118.0228 203° Southwest 403 464 38,000  Level Salt Center
Sun 03:53:48 PM 42.2383 -118.0839 205° Southwest 402 463 38,000  Level Salt Center
Sun 03:54:50 PM 42.1219 -118.1556 205° Southwest 404 465 38,000  Level Salt Center
Sun 03:55:52 PM 42.0247 -118.2147 204° Southwest 402 463 38,000  Level Salt Center
Sun 03:56:54 PM 41.9094 -118.2839 204° Southwest 405 466 38,000  Level Salt Center
Sun 03:57:56 PM 41.8119 -118.3436 205° Southwest 404 465 38,000  Level Salt Center
Sun 03:58:58 PM 41.6969 -118.4103 203° Southwest 403 464 38,000  Level Salt Center
Sun 04:00:00 PM 41.5989 -118.4692 204° Southwest 404 465 38,000  Level Salt Center
Sun 04:01:02 PM 41.4842 -118.5369 204° Southwest 404 465 38,000  Level Salt Center
Sun 04:02:04 PM 41.3861 -118.5947 204° Southwest 403 464 38,000  Level Salt Center
Sun 04:03:06 PM 41.2703 -118.6631 204° Southwest 407 468 38,000  Level Salt Center
Sun 04:04:08 PM 41.1700 -118.7208 203° Southwest 409 471 38,000  Level Salt Center
Sun 04:05:10 PM 41.0722 -118.7781 204° Southwest 405 466 38,000  Level Salt Center
Sun 04:06:12 PM 40.9564 -118.8456 204° Southwest 406 467 38,000  Level Salt Center
Sun 04:07:14 PM 40.8575 -118.9042 204° Southwest 407 468 38,000  Level Salt Center
Sun 04:08:16 PM 40.7414 -118.9706 203° Southwest 408 470 38,000  Level Salt Center
Sun 04:09:18 PM 40.6428 -119.0278 204° Southwest 405 466 38,000  Level Salt Center
Sun 04:10:20 PM 40.5197 -119.0981 203° Southwest 410 472 38,000  Level Salt Center
Sun 04:11:22 PM 40.4156 -119.1572 203° Southwest 409 471 38,000  Level Salt Center
Sun 04:12:24 PM 40.3111 -119.2178 204° Southwest 410 472 38,000  Level Salt Center
Sun 04:13:26 PM 40.2075 -119.2764 203° Southwest 406 467 38,000  Level Salt Center
Sun 04:14:29 PM 40.1039 -119.3347 203° Southwest 406 467 38,000  Level Salt Center
Sun 04:15:31 PM 40.0008 -119.3928 203° Southwest 405 466 38,000  Level Salt Center
Sun 04:16:33 PM 39.8750 -119.4642 204° Southwest 409 471 38,000  Level Salt Center
Sun 04:17:35 PM 39.7881 -119.5558 219° Southwest 409 471 38,000  Level Salt Center
Sun 04:18:59 PM 39.7239 -119.7528 247° West 425 489 38,000  Level Oakland Center
Sun 04:20:01 PM 39.6850 -119.8953 251° West 422 486 38,000  Level Oakland Center
Sun 04:21:02 PM 39.6469 -120.0392 251° West 422 486 38,000  Level Oakland Center
Sun 04:22:04 PM 39.5997 -120.1981 249° West 412 474 38,000  Level Oakland Center
Sun 04:23:05 PM 39.5606 -120.3425 251° West 423 487 38,000  Level Oakland Center
Sun 04:24:07 PM 39.5192 -120.4861 250° West 427 491 38,000  Level Oakland Center
Sun 04:25:08 PM 39.4781 -120.6311 250° West 431 496 38,000  Level Oakland Center
Sun 04:26:10 PM 39.4578 -120.7847 260° West 447 514 38,000  Level Oakland Center
Sun 04:27:12 PM 39.4511 -120.9417 267° West 442 509 38,000  Level Oakland Center
Sun 04:28:13 PM 39.4436 -121.0972 266° West 438 504 38,000  Level Oakland Center
Sun 04:29:15 PM 39.4364 -121.2542 267° West 439 505 38,000  Level Oakland Center
Sun 04:30:16 PM 39.4283 -121.4425 267° West 439 505 38,000  Level Oakland Center
Sun 04:31:18 PM 39.4225 -121.5992 267° West 439 505 38,000 -629 Level Oakland Center
Sun 04:32:20 PM 39.4150 -121.7575 267° West 441 507 36,700 -1,512 Descending Oakland Center
Sun 04:33:21 PM 39.4069 -121.9156 266° West 443 510 34,900 -1,756 Descending Oakland Center
Sun 04:34:23 PM 39.3983 -122.0739 266° West 443 510 33,100 -1,742 Descending Oakland Center
Sun 04:35:25 PM 39.3894 -122.2311 266° West 441 507 31,300 -1,512 Descending Oakland Center
Sun 04:36:26 PM 39.3789 -122.4117 266° West 425 489 30,000 -634 Descending Oakland Center
Sun 04:37:28 PM 39.3717 -122.5494 266° West 403 464 30,000  Level Oakland Center
Sun 04:38:30 PM 39.3625 -122.6944 265° West 402 463 30,000  Level Oakland Center
Sun 04:39:31 PM 39.3531 -122.8397 265° West 405 466 30,000  Level Oakland Center
Sun 04:40:33 PM 39.3178 -122.9672 250° West 404 465 30,000  Level Oakland Center
Sun 04:41:35 PM 39.2139 -122.9961 192° South 397 457 30,000  Level Oakland Center
Sun 04:42:36 PM 39.1028 -122.9817 174° South 400 460 30,000  Level Oakland Center
Sun 04:43:38 PM 38.9719 -122.9658 175° South 397 457 30,000  Level Oakland Center
Sun 04:44:40 PM 38.8628 -122.9531 175° South 395 455 30,000 -780 Level Oakland Center
Sun 04:45:41 PM 38.7528 -122.9422 176° South 397 457 28,400 -1,854 Descending Oakland Center
Sun 04:46:43 PM 38.6464 -122.9300 175° South 388 447 26,200 -2,032 Descending Oakland Center
Sun 04:47:45 PM 38.5444 -122.9189 175° South 376 433 24,200 -1,951 Descending Oakland Center
Sun 04:48:46 PM 38.4464 -122.9075 175° South 362 417 22,200 -1,854 Descending Oakland Center
Sun 04:49:48 PM 38.3511 -122.8978 175° South 351 404 20,400 -1,887 Descending Oakland Center
Sun 04:50:50 PM 38.2489 -122.8867 175° South 315 362 18,300 -1,742 Descending Oakland Center
Sun 04:51:52 PM 38.1661 -122.8767 175° South 302 348 16,800 -1,561 Descending Oakland Center
Sun 04:52:53 PM 38.0844 -122.8658 174° South 297 342 15,100 -1,610 Descending Oakland Center
Sun 04:53:55 PM 38.0183 -122.8003 142° Southeast 305 351 13,500 -1,463 Descending Oakland Center
Sun 04:54:56 PM 37.9564 -122.7342 140° Southeast 298 343 12,100 -1,220 Descending Oakland Center
Sun 04:55:58 PM 37.8847 -122.6558 139° Southeast 291 335 11,000 -584 Descending Oakland Center
Sun 04:56:49 PM 37.8333 -122.6000 139° Southeast 289 333 11,000  Level Northern TRACON
Sun 04:57:49 PM 37.7833 -122.5333 133° Southeast 241 277 11,000  Level Northern TRACON
Sun 04:58:49 PM 37.7333 -122.4833 142° Southeast 209 241 11,000 50 Level Northern TRACON
Sun 04:59:49 PM 37.7167 -122.4167 108° East 213 245 11,100 -650 Climbing Northern TRACON
Sun 05:00:49 PM 37.7000 -122.3500 108° East 214 246 9,700 -1,450 Descending Northern TRACON
Sun 05:01:49 PM 37.6667 -122.2833 122° Southeast 220 253 8,200 -1,500 Descending Northern TRACON
Sun 05:02:49 PM 37.6500 -122.2167 108° East 207 238 6,700 -1,500 Descending Northern TRACON
Sun 05:03:49 PM 37.6167 -122.1500 122° Southeast 194 223 5,200 -1,500 Descending Northern TRACON
Sun 05:04:49 PM 37.5833 -122.1333 158° South 194 223 3,700 -1,100 Descending Northern TRACON
Sun 05:05:49 PM 37.5667 -122.1833 247° West 177 204 3,000 -950 Descending Northern TRACON
Sun 05:06:49 PM 37.5833 -122.2500 288° West 168 193 1,800 -850 Descending Northern TRACON
Sun 05:07:49 PM 37.5833 -122.2833 270° West 129 148 1,300 -595 Descending Northern TRACON
Sun 05:08:50 PM 37.6000 -122.3333 293° West 134 154 600 -689 Descending Northern TRACON

Login

Don't have an account? Register now (free) for customized features, flight alerts, and more!